sensor_id;sensor_type;location;lat;lon;timestamp;P1;durP1;ratioP1;P2;durP2;ratioP2
8450;SDS011;4262;50.980;13.892;2022-10-17T03:33:03;74.30;;;38.87;;
8450;SDS011;4262;50.980;13.892;2022-10-17T03:35:30;68.53;;;35.30;;
8450;SDS011;4262;50.980;13.892;2022-10-17T03:37:58;73.67;;;37.47;;
8450;SDS011;4262;50.980;13.892;2022-10-17T03:40:26;77.13;;;38.50;;
8450;SDS011;4262;50.980;13.892;2022-10-17T03:42:53;75.83;;;37.27;;
8450;SDS011;4262;50.980;13.892;2022-10-17T03:45:20;80.93;;;38.07;;
8450;SDS011;4262;50.980;13.892;2022-10-17T03:47:47;72.00;;;37.73;;
8450;SDS011;4262;50.980;13.892;2022-10-17T03:50:15;73.23;;;35.90;;
8450;SDS011;4262;50.980;13.892;2022-10-17T03:52:45;78.17;;;37.70;;
8450;SDS011;4262;50.980;13.892;2022-10-17T03:55:12;82.60;;;40.37;;
8450;SDS011;4262;50.980;13.892;2022-10-17T03:57:39;79.40;;;39.10;;
8450;SDS011;4262;50.980;13.892;2022-10-17T04:00:07;68.87;;;36.53;;
8450;SDS011;4262;50.980;13.892;2022-10-17T04:02:48;79.17;;;38.60;;
8450;SDS011;4262;50.980;13.892;2022-10-17T04:05:18;74.03;;;37.63;;
8450;SDS011;4262;50.980;13.892;2022-10-17T04:07:46;77.30;;;39.07;;
8450;SDS011;4262;50.980;13.892;2022-10-17T04:10:15;69.23;;;34.93;;
8450;SDS011;4262;50.980;13.892;2022-10-17T04:12:42;68.87;;;37.87;;
8450;SDS011;4262;50.980;13.892;2022-10-17T04:15:09;72.73;;;37.60;;
8450;SDS011;4262;50.980;13.892;2022-10-17T04:17:37;77.13;;;39.60;;
8450;SDS011;4262;50.980;13.892;2022-10-17T04:20:05;83.57;;;40.10;;
8450;SDS011;4262;50.980;13.892;2022-10-17T04:22:34;81.60;;;38.73;;
8450;SDS011;4262;50.980;13.892;2022-10-17T04:25:02;70.23;;;37.80;;
8450;SDS011;4262;50.980;13.892;2022-10-17T04:27:35;79.00;;;39.00;;
8450;SDS011;4262;50.980;13.892;2022-10-17T04:30:02;82.50;;;40.47;;
8450;SDS011;4262;50.980;13.892;2022-10-17T04:32:34;83.97;;;41.90;;
8450;SDS011;4262;50.980;13.892;2022-10-17T04:35:10;79.60;;;42.00;;
8450;SDS011;4262;50.980;13.892;2022-10-17T04:37:42;90.40;;;41.30;;
8450;SDS011;4262;50.980;13.892;2022-10-17T04:40:15;92.10;;;42.60;;
8450;SDS011;4262;50.980;13.892;2022-10-17T04:42:43;83.97;;;42.37;;
8450;SDS011;4262;50.980;13.892;2022-10-17T04:45:13;84.43;;;43.13;;
8450;SDS011;4262;50.980;13.892;2022-10-17T04:47:41;84.77;;;42.80;;
8450;SDS011;4262;50.980;13.892;2022-10-17T04:50:08;86.20;;;43.83;;
8450;SDS011;4262;50.980;13.892;2022-10-17T04:52:35;85.53;;;41.90;;
8450;SDS011;4262;50.980;13.892;2022-10-17T04:55:04;79.00;;;41.77;;
8450;SDS011;4262;50.980;13.892;2022-10-17T04:57:33;81.50;;;42.77;;
8450;SDS011;4262;50.980;13.892;2022-10-17T05:00:08;90.47;;;43.10;;
8450;SDS011;4262;50.980;13.892;2022-10-17T05:02:59;83.17;;;43.50;;
8450;SDS011;4262;50.980;13.892;2022-10-17T05:05:27;81.60;;;42.80;;
8450;SDS011;4262;50.980;13.892;2022-10-17T05:07:55;92.57;;;46.20;;
8450;SDS011;4262;50.980;13.892;2022-10-17T05:10:30;90.20;;;43.03;;
8450;SDS011;4262;50.980;13.892;2022-10-17T05:13:03;86.80;;;43.10;;
8450;SDS011;4262;50.980;13.892;2022-10-17T05:15:32;91.83;;;44.73;;
8450;SDS011;4262;50.980;13.892;2022-10-17T05:17:59;84.50;;;43.00;;
8450;SDS011;4262;50.980;13.892;2022-10-17T05:20:27;82.90;;;43.00;;
8450;SDS011;4262;50.980;13.892;2022-10-17T05:22:57;80.40;;;44.50;;
8450;SDS011;4262;50.980;13.892;2022-10-17T05:25:30;85.93;;;44.73;;
8450;SDS011;4262;50.980;13.892;2022-10-17T05:27:57;82.33;;;42.40;;
8450;SDS011;4262;50.980;13.892;2022-10-17T05:30:24;92.23;;;45.80;;
8450;SDS011;4262;50.980;13.892;2022-10-17T05:32:56;90.57;;;47.63;;
8450;SDS011;4262;50.980;13.892;2022-10-17T05:35:23;84.53;;;46.93;;
8450;SDS011;4262;50.980;13.892;2022-10-17T05:37:51;87.97;;;45.83;;
8450;SDS011;4262;50.980;13.892;2022-10-17T05:40:19;86.00;;;44.87;;
8450;SDS011;4262;50.980;13.892;2022-10-17T05:42:51;81.47;;;45.83;;
8450;SDS011;4262;50.980;13.892;2022-10-17T05:45:20;79.00;;;42.10;;
8450;SDS011;4262;50.980;13.892;2022-10-17T05:47:47;90.43;;;48.43;;
8450;SDS011;4262;50.980;13.892;2022-10-17T05:50:15;95.50;;;43.07;;
8450;SDS011;4262;50.980;13.892;2022-10-17T05:52:59;89.40;;;44.40;;
8450;SDS011;4262;50.980;13.892;2022-10-17T05:55:27;78.23;;;45.17;;
8450;SDS011;4262;50.980;13.892;2022-10-17T05:57:55;83.63;;;42.70;;
8450;SDS011;4262;50.980;13.892;2022-10-17T06:00:27;76.57;;;42.20;;
8450;SDS011;4262;50.980;13.892;2022-10-17T06:02:56;88.73;;;46.10;;
8450;SDS011;4262;50.980;13.892;2022-10-17T06:05:23;90.30;;;43.60;;
8450;SDS011;4262;50.980;13.892;2022-10-17T06:07:50;84.70;;;45.20;;
8450;SDS011;4262;50.980;13.892;2022-10-17T06:10:19;67.40;;;38.83;;
8450;SDS011;4262;50.980;13.892;2022-10-17T06:12:46;75.47;;;42.10;;
8450;SDS011;4262;50.980;13.892;2022-10-17T06:15:15;89.83;;;43.70;;
8450;SDS011;4262;50.980;13.892;2022-10-17T06:17:47;76.90;;;44.30;;
8450;SDS011;4262;50.980;13.892;2022-10-17T06:20:14;77.67;;;43.43;;
8450;SDS011;4262;50.980;13.892;2022-10-17T06:22:42;88.27;;;46.03;;
8450;SDS011;4262;50.980;13.892;2022-10-17T06:25:14;87.27;;;44.30;;
8450;SDS011;4262;50.980;13.892;2022-10-17T06:27:40;82.20;;;43.17;;
8450;SDS011;4262;50.980;13.892;2022-10-17T06:30:07;72.00;;;39.87;;
8450;SDS011;4262;50.980;13.892;2022-10-17T06:32:35;71.40;;;38.57;;
8450;SDS011;4262;50.980;13.892;2022-10-17T06:35:03;77.97;;;42.77;;
8450;SDS011;4262;50.980;13.892;2022-10-17T06:37:31;69.87;;;36.40;;
8450;SDS011;4262;50.980;13.892;2022-10-17T06:40:01;79.97;;;42.30;;
8450;SDS011;4262;50.980;13.892;2022-10-17T06:42:30;75.07;;;42.70;;
8450;SDS011;4262;50.980;13.892;2022-10-17T06:45:07;75.30;;;41.57;;
8450;SDS011;4262;50.980;13.892;2022-10-17T06:47:41;82.60;;;44.90;;
8450;SDS011;4262;50.980;13.892;2022-10-17T06:50:26;73.57;;;39.80;;
8450;SDS011;4262;50.980;13.892;2022-10-17T06:53:05;74.80;;;41.10;;
8450;SDS011;4262;50.980;13.892;2022-10-17T06:55:56;72.87;;;40.20;;
8450;SDS011;4262;50.980;13.892;2022-10-17T06:58:56;67.60;;;38.80;;
8450;SDS011;4262;50.980;13.892;2022-10-17T07:01:34;62.40;;;37.50;;
8450;SDS011;4262;50.980;13.892;2022-10-17T07:04:04;68.63;;;39.17;;
8450;SDS011;4262;50.980;13.892;2022-10-17T07:06:32;67.77;;;38.57;;
8450;SDS011;4262;50.980;13.892;2022-10-17T07:09:08;68.00;;;37.87;;
8450;SDS011;4262;50.980;13.892;2022-10-17T07:11:35;64.03;;;38.43;;
8450;SDS011;4262;50.980;13.892;2022-10-17T07:14:02;66.90;;;37.37;;
8450;SDS011;4262;50.980;13.892;2022-10-17T07:16:29;68.73;;;40.80;;
8450;SDS011;4262;50.980;13.892;2022-10-17T07:19:06;62.20;;;32.03;;
8450;SDS011;4262;50.980;13.892;2022-10-17T07:21:36;64.37;;;33.30;;
8450;SDS011;4262;50.980;13.892;2022-10-17T07:24:04;66.40;;;40.30;;
8450;SDS011;4262;50.980;13.892;2022-10-17T07:26:31;67.90;;;41.57;;
8450;SDS011;4262;50.980;13.892;2022-10-17T07:28:59;71.10;;;40.87;;
8450;SDS011;4262;50.980;13.892;2022-10-17T07:31:34;61.63;;;37.87;;
8450;SDS011;4262;50.980;13.892;2022-10-17T07:34:01;58.10;;;36.23;;
8450;SDS011;4262;50.980;13.892;2022-10-17T07:36:30;58.73;;;38.43;;
8450;SDS011;4262;50.980;13.892;2022-10-17T07:39:00;63.90;;;37.73;;
8450;SDS011;4262;50.980;13.892;2022-10-17T07:41:28;57.77;;;29.93;;
8450;SDS011;4262;50.980;13.892;2022-10-17T07:43:54;52.13;;;32.70;;
8450;SDS011;4262;50.980;13.892;2022-10-17T07:46:28;61.50;;;35.03;;
8450;SDS011;4262;50.980;13.892;2022-10-17T07:48:54;50.80;;;32.77;;
8450;SDS011;4262;50.980;13.892;2022-10-17T07:51:21;48.77;;;31.60;;
8450;SDS011;4262;50.980;13.892;2022-10-17T07:53:50;46.53;;;31.10;;
8450;SDS011;4262;50.980;13.892;2022-10-17T07:56:17;51.83;;;33.40;;
8450;SDS011;4262;50.980;13.892;2022-10-17T07:58:45;50.60;;;33.70;;
8450;SDS011;4262;50.980;13.892;2022-10-17T08:01:12;52.83;;;32.97;;
8450;SDS011;4262;50.980;13.892;2022-10-17T08:03:39;51.93;;;31.27;;
8450;SDS011;4262;50.980;13.892;2022-10-17T08:06:07;52.77;;;30.87;;
8450;SDS011;4262;50.980;13.892;2022-10-17T08:08:33;53.13;;;33.70;;
8450;SDS011;4262;50.980;13.892;2022-10-17T08:11:03;47.20;;;29.50;;
8450;SDS011;4262;50.980;13.892;2022-10-17T08:13:32;52.37;;;32.23;;
8450;SDS011;4262;50.980;13.892;2022-10-17T08:15:59;51.97;;;29.63;;
8450;SDS011;4262;50.980;13.892;2022-10-17T08:18:26;53.20;;;32.53;;
8450;SDS011;4262;50.980;13.892;2022-10-17T08:20:53;55.53;;;31.17;;
8450;SDS011;4262;50.980;13.892;2022-10-17T08:23:20;46.10;;;27.40;;
8450;SDS011;4262;50.980;13.892;2022-10-17T08:25:46;46.53;;;31.33;;
8450;SDS011;4262;50.980;13.892;2022-10-17T08:28:14;46.20;;;29.60;;
8450;SDS011;4262;50.980;13.892;2022-10-17T08:30:41;47.10;;;31.80;;
8450;SDS011;4262;50.980;13.892;2022-10-17T08:33:08;44.87;;;31.93;;
8450;SDS011;4262;50.980;13.892;2022-10-17T08:35:34;42.70;;;29.40;;
8450;SDS011;4262;50.980;13.892;2022-10-17T08:38:02;45.60;;;30.13;;
8450;SDS011;4262;50.980;13.892;2022-10-17T08:40:30;47.63;;;31.00;;
8450;SDS011;4262;50.980;13.892;2022-10-17T08:43:01;47.00;;;30.80;;
8450;SDS011;4262;50.980;13.892;2022-10-17T08:45:48;48.87;;;32.43;;
8450;SDS011;4262;50.980;13.892;2022-10-17T08:48:19;46.03;;;30.70;;
8450;SDS011;4262;50.980;13.892;2022-10-17T08:50:49;48.37;;;32.17;;
8450;SDS011;4262;50.980;13.892;2022-10-17T08:53:18;44.50;;;27.77;;
8450;SDS011;4262;50.980;13.892;2022-10-17T08:55:50;60.93;;;32.10;;
8450;SDS011;4262;50.980;13.892;2022-10-17T08:58:19;53.47;;;31.33;;
8450;SDS011;4262;50.980;13.892;2022-10-17T09:00:51;51.53;;;29.80;;
8450;SDS011;4262;50.980;13.892;2022-10-17T09:03:41;50.23;;;30.20;;
8450;SDS011;4262;50.980;13.892;2022-10-17T09:06:17;51.10;;;33.40;;
8450;SDS011;4262;50.980;13.892;2022-10-17T09:08:52;50.97;;;31.00;;
8450;SDS011;4262;50.980;13.892;2022-10-17T09:11:33;46.17;;;29.00;;
8450;SDS011;4262;50.980;13.892;2022-10-17T09:14:13;45.93;;;30.73;;
8450;SDS011;4262;50.980;13.892;2022-10-17T09:17:01;53.40;;;30.33;;
8450;SDS011;4262;50.980;13.892;2022-10-17T09:19:41;45.83;;;28.10;;
8450;SDS011;4262;50.980;13.892;2022-10-17T09:22:12;44.53;;;25.33;;
8450;SDS011;4262;50.980;13.892;2022-10-17T09:24:43;47.27;;;32.30;;
8450;SDS011;4262;50.980;13.892;2022-10-17T09:27:15;43.37;;;29.97;;
8450;SDS011;4262;50.980;13.892;2022-10-17T09:29:47;43.30;;;27.00;;
8450;SDS011;4262;50.980;13.892;2022-10-17T09:32:20;41.17;;;29.60;;
8450;SDS011;4262;50.980;13.892;2022-10-17T09:34:50;44.73;;;30.57;;
8450;SDS011;4262;50.980;13.892;2022-10-17T09:37:18;44.43;;;31.10;;
8450;SDS011;4262;50.980;13.892;2022-10-17T09:39:47;44.70;;;29.97;;
8450;SDS011;4262;50.980;13.892;2022-10-17T09:42:14;42.33;;;29.17;;
8450;SDS011;4262;50.980;13.892;2022-10-17T09:44:46;46.23;;;29.73;;
8450;SDS011;4262;50.980;13.892;2022-10-17T09:47:28;45.37;;;30.23;;
8450;SDS011;4262;50.980;13.892;2022-10-17T09:49:57;42.53;;;28.50;;
8450;SDS011;4262;50.980;13.892;2022-10-17T09:52:26;42.03;;;27.40;;
8450;SDS011;4262;50.980;13.892;2022-10-17T09:54:56;39.97;;;27.93;;
8450;SDS011;4262;50.980;13.892;2022-10-17T09:57:26;43.63;;;26.40;;
8450;SDS011;4262;50.980;13.892;2022-10-17T09:59:57;37.33;;;26.07;;
8450;SDS011;4262;50.980;13.892;2022-10-17T10:02:25;35.60;;;25.03;;
8450;SDS011;4262;50.980;13.892;2022-10-17T10:04:54;39.63;;;26.77;;
8450;SDS011;4262;50.980;13.892;2022-10-17T10:07:24;37.60;;;24.50;;
8450;SDS011;4262;50.980;13.892;2022-10-17T10:09:56;38.13;;;24.47;;
8450;SDS011;4262;50.980;13.892;2022-10-17T10:12:25;37.37;;;25.60;;
8450;SDS011;4262;50.980;13.892;2022-10-17T10:14:53;34.50;;;23.42;;
8450;SDS011;4262;50.980;13.892;2022-10-17T10:17:28;32.88;;;24.23;;
8450;SDS011;4262;50.980;13.892;2022-10-17T10:20:27;35.45;;;24.00;;
8450;SDS011;4262;50.980;13.892;2022-10-17T10:25:56;33.95;;;23.27;;
8450;SDS011;4262;50.980;13.892;2022-10-17T10:28:26;41.55;;;23.95;;
8450;SDS011;4262;50.980;13.892;2022-10-17T10:30:54;36.50;;;24.05;;
8450;SDS011;4262;50.980;13.892;2022-10-17T10:33:24;31.45;;;22.67;;
8450;SDS011;4262;50.980;13.892;2022-10-17T10:35:56;31.23;;;21.80;;
8450;SDS011;4262;50.980;13.892;2022-10-17T10:38:25;30.27;;;22.48;;
8450;SDS011;4262;50.980;13.892;2022-10-17T10:40:54;34.05;;;23.17;;
8450;SDS011;4262;50.980;13.892;2022-10-17T10:43:24;31.52;;;22.80;;
8450;SDS011;4262;50.980;13.892;2022-10-17T10:45:58;31.42;;;23.15;;
8450;SDS011;4262;50.980;13.892;2022-10-17T10:48:26;34.15;;;21.83;;
8450;SDS011;4262;50.980;13.892;2022-10-17T10:50:59;37.65;;;22.23;;
8450;SDS011;4262;50.980;13.892;2022-10-17T10:53:32;33.28;;;22.00;;
8450;SDS011;4262;50.980;13.892;2022-10-17T10:56:07;37.78;;;20.65;;
8450;SDS011;4262;50.980;13.892;2022-10-17T10:58:40;36.05;;;22.75;;
8450;SDS011;4262;50.980;13.892;2022-10-17T11:01:19;34.40;;;23.42;;
8450;SDS011;4262;50.980;13.892;2022-10-17T11:03:53;33.17;;;23.30;;
8450;SDS011;4262;50.980;13.892;2022-10-17T11:06:27;31.00;;;22.98;;
8450;SDS011;4262;50.980;13.892;2022-10-17T11:09:04;35.80;;;23.05;;
8450;SDS011;4262;50.980;13.892;2022-10-17T11:11:39;32.05;;;22.42;;
8450;SDS011;4262;50.980;13.892;2022-10-17T11:14:10;35.03;;;22.35;;
8450;SDS011;4262;50.980;13.892;2022-10-17T11:16:43;29.00;;;21.88;;
8450;SDS011;4262;50.980;13.892;2022-10-17T11:19:17;31.58;;;20.23;;
8450;SDS011;4262;50.980;13.892;2022-10-17T11:21:55;26.10;;;18.70;;
8450;SDS011;4262;50.980;13.892;2022-10-17T11:24:32;32.40;;;19.02;;
8450;SDS011;4262;50.980;13.892;2022-10-17T11:27:04;27.95;;;19.98;;
8450;SDS011;4262;50.980;13.892;2022-10-17T11:29:33;29.20;;;19.38;;
8450;SDS011;4262;50.980;13.892;2022-10-17T11:32:03;25.45;;;18.20;;
8450;SDS011;4262;50.980;13.892;2022-10-17T11:34:34;27.10;;;19.50;;
8450;SDS011;4262;50.980;13.892;2022-10-17T11:37:10;27.25;;;18.33;;
8450;SDS011;4262;50.980;13.892;2022-10-17T11:39:43;24.27;;;18.83;;
8450;SDS011;4262;50.980;13.892;2022-10-17T11:42:16;25.00;;;17.88;;
8450;SDS011;4262;50.980;13.892;2022-10-17T11:44:46;23.63;;;18.00;;
8450;SDS011;4262;50.980;13.892;2022-10-17T11:47:19;25.85;;;17.48;;
8450;SDS011;4262;50.980;13.892;2022-10-17T11:50:04;35.10;;;17.65;;
8450;SDS011;4262;50.980;13.892;2022-10-17T11:52:43;28.75;;;18.20;;
8450;SDS011;4262;50.980;13.892;2022-10-17T11:55:15;24.85;;;17.75;;
8450;SDS011;4262;50.980;13.892;2022-10-17T11:57:59;27.63;;;17.48;;
8450;SDS011;4262;50.980;13.892;2022-10-17T12:00:42;36.30;;;18.42;;
8450;SDS011;4262;50.980;13.892;2022-10-17T12:06:12;28.60;;;17.83;;
8450;SDS011;4262;50.980;13.892;2022-10-17T12:08:50;23.27;;;16.77;;
8450;SDS011;4262;50.980;13.892;2022-10-17T12:11:26;26.75;;;18.65;;
8450;SDS011;4262;50.980;13.892;2022-10-17T12:14:00;29.05;;;19.98;;
8450;SDS011;4262;50.980;13.892;2022-10-17T12:16:37;25.98;;;17.75;;
8450;SDS011;4262;50.980;13.892;2022-10-17T12:19:22;25.88;;;18.23;;
8450;SDS011;4262;50.980;13.892;2022-10-17T12:21:53;27.08;;;18.67;;
8450;SDS011;4262;50.980;13.892;2022-10-17T12:24:30;32.17;;;17.73;;
8450;SDS011;4262;50.980;13.892;2022-10-17T12:29:57;32.97;;;18.60;;
8450;SDS011;4262;50.980;13.892;2022-10-17T12:32:25;24.58;;;17.33;;
8450;SDS011;4262;50.980;13.892;2022-10-17T12:34:52;25.45;;;17.08;;
8450;SDS011;4262;50.980;13.892;2022-10-17T12:46:39;27.92;;;19.58;;
8450;SDS011;4262;50.980;13.892;2022-10-17T12:52:16;33.25;;;19.30;;
8450;SDS011;4262;50.980;13.892;2022-10-17T12:54:45;32.53;;;20.73;;
8450;SDS011;4262;50.980;13.892;2022-10-17T12:57:19;27.27;;;19.67;;
8450;SDS011;4262;50.980;13.892;2022-10-17T12:59:49;29.20;;;20.38;;
8450;SDS011;4262;50.980;13.892;2022-10-17T13:02:19;30.45;;;20.27;;
8450;SDS011;4262;50.980;13.892;2022-10-17T13:04:47;32.60;;;21.77;;
8450;SDS011;4262;50.980;13.892;2022-10-17T13:07:19;32.17;;;22.95;;
8450;SDS011;4262;50.980;13.892;2022-10-17T13:09:47;34.73;;;21.50;;
8450;SDS011;4262;50.980;13.892;2022-10-17T13:12:17;34.45;;;22.02;;
8450;SDS011;4262;50.980;13.892;2022-10-17T13:14:49;37.08;;;23.85;;
8450;SDS011;4262;50.980;13.892;2022-10-17T13:17:21;33.73;;;22.63;;
8450;SDS011;4262;50.980;13.892;2022-10-17T13:19:50;33.60;;;23.30;;
8450;SDS011;4262;50.980;13.892;2022-10-17T13:22:18;36.17;;;24.07;;
8450;SDS011;4262;50.980;13.892;2022-10-17T13:24:47;36.50;;;23.47;;
8450;SDS011;4262;50.980;13.892;2022-10-17T13:27:24;36.10;;;24.07;;
8450;SDS011;4262;50.980;13.892;2022-10-17T13:29:53;35.50;;;23.80;;
8450;SDS011;4262;50.980;13.892;2022-10-17T13:32:22;38.60;;;24.60;;
8450;SDS011;4262;50.980;13.892;2022-10-17T13:35:06;36.87;;;23.30;;
8450;SDS011;4262;50.980;13.892;2022-10-17T13:37:34;39.07;;;23.47;;
8450;SDS011;4262;50.980;13.892;2022-10-17T13:40:02;33.20;;;22.67;;
8450;SDS011;4262;50.980;13.892;2022-10-17T13:42:35;37.43;;;24.80;;
8450;SDS011;4262;50.980;13.892;2022-10-17T13:45:09;41.72;;;24.45;;
8450;SDS011;4262;50.980;13.892;2022-10-17T13:47:45;40.10;;;23.57;;
8450;SDS011;4262;50.980;13.892;2022-10-17T13:50:15;34.77;;;24.30;;
8450;SDS011;4262;50.980;13.892;2022-10-17T13:52:48;37.50;;;24.97;;
8450;SDS011;4262;50.980;13.892;2022-10-17T13:55:32;39.00;;;25.40;;
8450;SDS011;4262;50.980;13.892;2022-10-17T13:58:09;42.13;;;26.67;;
8450;SDS011;4262;50.980;13.892;2022-10-17T14:00:41;45.77;;;26.13;;
8450;SDS011;4262;50.980;13.892;2022-10-17T14:03:08;42.47;;;28.33;;
8450;SDS011;4262;50.980;13.892;2022-10-17T14:05:35;38.07;;;25.63;;
8450;SDS011;4262;50.980;13.892;2022-10-17T14:08:27;47.83;;;28.23;;
8450;SDS011;4262;50.980;13.892;2022-10-17T14:10:55;45.57;;;28.90;;
8450;SDS011;4262;50.980;13.892;2022-10-17T14:13:24;42.17;;;27.13;;
8450;SDS011;4262;50.980;13.892;2022-10-17T14:15:53;42.73;;;29.47;;
8450;SDS011;4262;50.980;13.892;2022-10-17T14:18:24;43.93;;;27.37;;
8450;SDS011;4262;50.980;13.892;2022-10-17T14:20:54;45.53;;;27.00;;
8450;SDS011;4262;50.980;13.892;2022-10-17T14:23:28;45.30;;;28.90;;
8450;SDS011;4262;50.980;13.892;2022-10-17T14:26:09;47.83;;;30.00;;
8450;SDS011;4262;50.980;13.892;2022-10-17T14:28:40;61.43;;;29.33;;
8450;SDS011;4262;50.980;13.892;2022-10-17T14:31:17;43.77;;;30.63;;
8450;SDS011;4262;50.980;13.892;2022-10-17T14:33:49;44.37;;;29.47;;
8450;SDS011;4262;50.980;13.892;2022-10-17T14:36:18;47.13;;;31.63;;
8450;SDS011;4262;50.980;13.892;2022-10-17T14:38:46;45.83;;;30.23;;
8450;SDS011;4262;50.980;13.892;2022-10-17T14:41:18;46.73;;;29.60;;
8450;SDS011;4262;50.980;13.892;2022-10-17T14:43:54;48.37;;;30.37;;
8450;SDS011;4262;50.980;13.892;2022-10-17T14:46:22;48.33;;;29.97;;
8450;SDS011;4262;50.980;13.892;2022-10-17T14:48:54;48.67;;;29.20;;
8450;SDS011;4262;50.980;13.892;2022-10-17T14:51:24;42.77;;;29.33;;
8450;SDS011;4262;50.980;13.892;2022-10-17T14:54:01;46.53;;;30.37;;
8450;SDS011;4262;50.980;13.892;2022-10-17T14:56:34;49.83;;;29.90;;
8450;SDS011;4262;50.980;13.892;2022-10-17T14:59:05;45.60;;;28.80;;
8450;SDS011;4262;50.980;13.892;2022-10-17T15:01:34;49.03;;;27.60;;
8450;SDS011;4262;50.980;13.892;2022-10-17T15:04:01;46.27;;;28.87;;
8450;SDS011;4262;50.980;13.892;2022-10-17T15:06:29;47.63;;;29.43;;
8450;SDS011;4262;50.980;13.892;2022-10-17T15:08:58;47.97;;;28.60;;
8450;SDS011;4262;50.980;13.892;2022-10-17T15:11:25;46.47;;;30.17;;
8450;SDS011;4262;50.980;13.892;2022-10-17T15:13:52;45.10;;;29.30;;
8450;SDS011;4262;50.980;13.892;2022-10-17T15:16:22;44.60;;;27.60;;
8450;SDS011;4262;50.980;13.892;2022-10-17T15:18:50;51.07;;;28.83;;
8450;SDS011;4262;50.980;13.892;2022-10-17T15:21:19;45.90;;;28.40;;
8450;SDS011;4262;50.980;13.892;2022-10-17T15:23:47;50.83;;;31.13;;
8450;SDS011;4262;50.980;13.892;2022-10-17T15:26:14;50.00;;;30.87;;
8450;SDS011;4262;50.980;13.892;2022-10-17T15:28:43;47.23;;;30.03;;
8450;SDS011;4262;50.980;13.892;2022-10-17T15:31:12;50.20;;;31.67;;
8450;SDS011;4262;50.980;13.892;2022-10-17T15:33:41;47.03;;;28.00;;
8450;SDS011;4262;50.980;13.892;2022-10-17T15:36:18;50.10;;;29.20;;
8450;SDS011;4262;50.980;13.892;2022-10-17T15:38:47;55.57;;;29.10;;
8450;SDS011;4262;50.980;13.892;2022-10-17T15:41:14;45.07;;;28.83;;
8450;SDS011;4262;50.980;13.892;2022-10-17T15:43:41;51.80;;;30.27;;
8450;SDS011;4262;50.980;13.892;2022-10-17T15:46:09;52.30;;;29.43;;
8450;SDS011;4262;50.980;13.892;2022-10-17T15:48:38;58.13;;;32.03;;
8450;SDS011;4262;50.980;13.892;2022-10-17T15:51:06;49.50;;;30.33;;
8450;SDS011;4262;50.980;13.892;2022-10-17T15:53:34;56.90;;;30.90;;
8450;SDS011;4262;50.980;13.892;2022-10-17T15:56:00;51.10;;;33.17;;
8450;SDS011;4262;50.980;13.892;2022-10-17T15:58:29;51.00;;;31.27;;
8450;SDS011;4262;50.980;13.892;2022-10-17T16:01:00;52.00;;;32.47;;
8450;SDS011;4262;50.980;13.892;2022-10-17T16:03:27;55.63;;;31.60;;
8450;SDS011;4262;50.980;13.892;2022-10-17T16:05:54;59.37;;;32.80;;
8450;SDS011;4262;50.980;13.892;2022-10-17T16:08:22;52.80;;;31.17;;
8450;SDS011;4262;50.980;13.892;2022-10-17T16:10:50;62.73;;;32.30;;
8450;SDS011;4262;50.980;13.892;2022-10-17T16:13:18;51.93;;;30.70;;
8450;SDS011;4262;50.980;13.892;2022-10-17T16:15:47;51.90;;;32.70;;
8450;SDS011;4262;50.980;13.892;2022-10-17T16:18:14;45.60;;;30.33;;
8450;SDS011;4262;50.980;13.892;2022-10-17T16:20:41;53.20;;;33.27;;
8450;SDS011;4262;50.980;13.892;2022-10-17T16:23:09;54.80;;;32.47;;
8450;SDS011;4262;50.980;13.892;2022-10-17T16:25:39;53.03;;;31.87;;
8450;SDS011;4262;50.980;13.892;2022-10-17T16:28:06;55.83;;;31.27;;
8450;SDS011;4262;50.980;13.892;2022-10-17T16:30:36;56.10;;;33.07;;
8450;SDS011;4262;50.980;13.892;2022-10-17T16:33:09;53.93;;;31.77;;
8450;SDS011;4262;50.980;13.892;2022-10-17T16:35:37;48.83;;;30.40;;
8450;SDS011;4262;50.980;13.892;2022-10-17T16:38:05;45.30;;;29.27;;
8450;SDS011;4262;50.980;13.892;2022-10-17T16:40:32;56.57;;;29.77;;
8450;SDS011;4262;50.980;13.892;2022-10-17T16:43:01;48.00;;;29.60;;
8450;SDS011;4262;50.980;13.892;2022-10-17T16:45:28;52.90;;;32.20;;
8450;SDS011;4262;50.980;13.892;2022-10-17T16:47:55;52.00;;;31.90;;
8450;SDS011;4262;50.980;13.892;2022-10-17T16:50:21;54.90;;;32.43;;
8450;SDS011;4262;50.980;13.892;2022-10-17T16:52:48;49.37;;;30.73;;
8450;SDS011;4262;50.980;13.892;2022-10-17T16:55:15;51.43;;;31.50;;
8450;SDS011;4262;50.980;13.892;2022-10-17T16:57:43;52.87;;;32.57;;
8450;SDS011;4262;50.980;13.892;2022-10-17T17:00:14;47.30;;;28.60;;
8450;SDS011;4262;50.980;13.892;2022-10-17T17:02:42;56.77;;;34.00;;
8450;SDS011;4262;50.980;13.892;2022-10-17T17:05:09;54.80;;;33.10;;
8450;SDS011;4262;50.980;13.892;2022-10-17T17:07:36;48.23;;;30.90;;
8450;SDS011;4262;50.980;13.892;2022-10-17T17:10:03;62.67;;;34.43;;
8450;SDS011;4262;50.980;13.892;2022-10-17T17:12:31;54.13;;;32.63;;
8450;SDS011;4262;50.980;13.892;2022-10-17T17:14:59;53.07;;;33.13;;
8450;SDS011;4262;50.980;13.892;2022-10-17T17:17:27;55.90;;;33.07;;
8450;SDS011;4262;50.980;13.892;2022-10-17T17:19:54;59.37;;;33.03;;
8450;SDS011;4262;50.980;13.892;2022-10-17T17:22:21;56.50;;;33.07;;
8450;SDS011;4262;50.980;13.892;2022-10-17T17:24:48;56.50;;;34.07;;
8450;SDS011;4262;50.980;13.892;2022-10-17T17:27:14;57.73;;;35.57;;
8450;SDS011;4262;50.980;13.892;2022-10-17T17:29:41;60.10;;;34.93;;
8450;SDS011;4262;50.980;13.892;2022-10-17T17:32:08;57.60;;;34.90;;
8450;SDS011;4262;50.980;13.892;2022-10-17T17:34:37;59.37;;;34.77;;
8450;SDS011;4262;50.980;13.892;2022-10-17T17:37:04;55.27;;;34.40;;
8450;SDS011;4262;50.980;13.892;2022-10-17T17:39:31;61.57;;;33.90;;
8450;SDS011;4262;50.980;13.892;2022-10-17T17:41:58;59.87;;;35.40;;
8450;SDS011;4262;50.980;13.892;2022-10-17T17:44:25;67.20;;;36.93;;
8450;SDS011;4262;50.980;13.892;2022-10-17T17:46:52;59.50;;;36.80;;
8450;SDS011;4262;50.980;13.892;2022-10-17T17:49:19;65.77;;;37.97;;
8450;SDS011;4262;50.980;13.892;2022-10-17T17:51:47;62.07;;;37.83;;
8450;SDS011;4262;50.980;13.892;2022-10-17T17:54:14;63.97;;;36.10;;
8450;SDS011;4262;50.980;13.892;2022-10-17T17:56:40;64.23;;;36.37;;
8450;SDS011;4262;50.980;13.892;2022-10-17T17:59:08;59.93;;;36.60;;
8450;SDS011;4262;50.980;13.892;2022-10-17T18:01:37;59.90;;;37.23;;
8450;SDS011;4262;50.980;13.892;2022-10-17T18:04:05;64.30;;;37.50;;
8450;SDS011;4262;50.980;13.892;2022-10-17T18:06:33;57.87;;;36.67;;
8450;SDS011;4262;50.980;13.892;2022-10-17T18:09:01;68.20;;;38.77;;
8450;SDS011;4262;50.980;13.892;2022-10-17T18:11:29;71.90;;;38.10;;
8450;SDS011;4262;50.980;13.892;2022-10-17T18:13:56;75.73;;;38.50;;
8450;SDS011;4262;50.980;13.892;2022-10-17T18:16:25;64.93;;;38.27;;
8450;SDS011;4262;50.980;13.892;2022-10-17T18:18:54;67.90;;;39.13;;
8450;SDS011;4262;50.980;13.892;2022-10-17T18:21:20;75.23;;;37.23;;
8450;SDS011;4262;50.980;13.892;2022-10-17T18:23:48;69.90;;;39.07;;
8450;SDS011;4262;50.980;13.892;2022-10-17T18:26:17;68.20;;;38.40;;
8450;SDS011;4262;50.980;13.892;2022-10-17T18:28:45;56.23;;;35.47;;
8450;SDS011;4262;50.980;13.892;2022-10-17T18:31:13;57.13;;;34.20;;
8450;SDS011;4262;50.980;13.892;2022-10-17T18:33:43;58.93;;;35.00;;
8450;SDS011;4262;50.980;13.892;2022-10-17T18:36:11;57.43;;;34.77;;
8450;SDS011;4262;50.980;13.892;2022-10-17T18:38:39;62.23;;;34.07;;
8450;SDS011;4262;50.980;13.892;2022-10-17T18:41:07;55.80;;;34.90;;
8450;SDS011;4262;50.980;13.892;2022-10-17T18:43:37;56.30;;;36.17;;
8450;SDS011;4262;50.980;13.892;2022-10-17T18:46:06;63.10;;;38.67;;